Time;durP1;ratioP1;P1;durP2;ratioP2;P2;SDS_P1;SDS_P2;PMS_P1;PMS_P2;Temp;Humidity;BMP_temperature;BMP_pressure;BME280_temperature;BME280_humidity;BME280_pressure;Samples;Min_cycle;Max_cycle;Signal;HPM_P1;HPM_P2
2022/10/08 00:02:16;;;;;;;0.10;0.10;;;13.70;99.90;;;;;;5039015;28;20041;-79
2022/10/08 00:04:41;;;;;;;0.00;0.00;;;13.70;99.90;;;;;;5041831;28;20049;-79
2022/10/08 00:07:08;;;;;;;0.10;0.10;;;13.70;99.90;;;;;;5038312;28;20059;-78
2022/10/08 00:09:33;;;;;;;0.10;0.10;;;13.70;99.90;;;;;;5039719;28;20053;-78
2022/10/08 00:11:59;;;;;;;0.10;0.10;;;13.70;99.90;;;;;;5039167;28;20038;-78
2022/10/08 00:14:25;;;;;;;0.22;0.22;;;13.70;99.90;;;;;;5029898;28;20076;-79
2022/10/08 00:16:50;;;;;;;0.00;0.00;;;13.80;99.90;;;;;;5028647;28;20484;-78
2022/10/08 00:19:16;;;;;;;0.00;0.00;;;13.80;99.90;;;;;;5039983;28;20080;-78
2022/10/08 00:21:43;;;;;;;0.20;0.20;;;13.70;99.90;;;;;;5033947;28;20045;-78
2022/10/08 00:24:13;;;;;;;0.10;0.10;;;13.80;99.90;;;;;;5033731;28;20037;-78
2022/10/08 00:26:40;;;;;;;0.10;0.10;;;13.80;99.90;;;;;;5035477;28;20068;-78
2022/10/08 00:29:06;;;;;;;0.10;0.10;;;13.80;99.90;;;;;;5026229;28;20811;-78
2022/10/08 00:31:38;;;;;;;0.00;0.00;;;13.70;99.90;;;;;;5027749;28;20030;-78
2022/10/08 00:34:07;;;;;;;0.10;0.10;;;13.80;99.90;;;;;;5045114;28;20049;-78
2022/10/08 00:36:36;;;;;;;0.00;0.00;;;13.70;99.90;;;;;;5037554;28;20092;-79
2022/10/08 00:39:05;;;;;;;0.43;0.28;;;13.80;99.90;;;;;;5031476;28;20500;-79
2022/10/08 00:41:34;;;;;;;0.08;0.08;;;13.80;99.90;;;;;;5035198;28;20471;-78
2022/10/08 00:44:02;;;;;;;0.20;0.20;;;13.70;99.90;;;;;;5044465;28;20095;-79
2022/10/08 00:46:38;;;;;;;0.10;0.10;;;13.70;99.90;;;;;;5020559;28;20125;-78
2022/10/08 00:49:10;;;;;;;0.10;0.10;;;13.70;99.90;;;;;;5028758;28;20497;-79
2022/10/08 00:51:37;;;;;;;0.10;0.10;;;13.70;99.90;;;;;;5037390;28;20045;-78
2022/10/08 00:54:04;;;;;;;0.10;0.10;;;13.60;99.90;;;;;;5031084;28;20046;-79
2022/10/08 00:56:33;;;;;;;0.10;0.10;;;13.60;99.90;;;;;;5032904;28;20037;-79
2022/10/08 00:58:59;;;;;;;6.55;1.45;;;13.50;99.90;;;;;;5015586;28;20168;-79
2022/10/08 01:01:25;;;;;;;0.30;0.30;;;13.50;99.90;;;;;;5031947;28;20056;-78
2022/10/08 01:03:50;;;;;;;0.10;0.10;;;13.50;99.90;;;;;;5029531;28;20044;-79
2022/10/08 01:06:44;;;;;;;0.10;0.10;;;13.40;99.90;;;;;;5043785;28;20049;-79
2022/10/08 01:09:36;;;;;;;0.10;0.10;;;13.40;99.90;;;;;;5037240;28;20049;-79
2022/10/08 01:12:21;;;;;;;12.48;2.75;;;13.40;99.90;;;;;;5014599;28;20304;-78
2022/10/08 01:15:00;;;;;;;0.10;0.10;;;13.30;99.90;;;;;;5029431;28;20152;-78
2022/10/08 01:17:55;;;;;;;0.10;0.10;;;13.30;99.90;;;;;;5035151;28;20045;-78
2022/10/08 01:20:53;;;;;;;0.00;0.00;;;13.20;99.90;;;;;;5029215;28;21799;-78
2022/10/08 01:23:38;;;;;;;0.00;0.00;;;13.20;99.90;;;;;;5039021;28;20099;-78
2022/10/08 01:26:41;;;;;;;0.13;0.13;;;13.20;99.90;;;;;;5020939;28;20046;-78
2022/10/08 01:29:12;;;;;;;0.30;0.28;;;13.20;99.90;;;;;;5040624;28;20053;-78
2022/10/08 01:31:52;;;;;;;0.10;0.10;;;13.20;99.90;;;;;;5030837;28;20091;-79
2022/10/08 01:34:36;;;;;;;0.10;0.10;;;13.10;99.90;;;;;;5023718;28;20050;-78
2022/10/08 01:37:03;;;;;;;;;;;13.00;99.90;;;;;;5045082;28;20093;-79
2022/10/08 01:39:32;;;;;;;0.10;0.10;;;12.90;99.90;;;;;;5049054;28;20007;-78
2022/10/08 01:42:00;;;;;;;0.00;0.00;;;12.90;99.90;;;;;;5021779;28;20096;-78
2022/10/08 01:44:31;;;;;;;0.10;0.10;;;12.90;99.90;;;;;;5033725;28;20131;-78
2022/10/08 01:46:59;;;;;;;0.05;0.05;;;12.90;99.90;;;;;;5036209;28;20103;-78
2022/10/08 01:49:30;;;;;;;0.00;0.00;;;12.90;99.90;;;;;;5043745;28;20445;-78
2022/10/08 01:52:11;;;;;;;0.10;0.10;;;12.80;99.90;;;;;;5026979;28;20034;-78
2022/10/08 01:54:41;;;;;;;0.65;0.65;;;12.80;99.90;;;;;;5016711;28;20044;-78
2022/10/08 01:57:09;;;;;;;0.10;0.10;;;12.70;99.90;;;;;;5042286;28;20051;-78
2022/10/08 01:59:46;;;;;;;0.10;0.10;;;12.60;99.90;;;;;;5015135;28;20054;-78
2022/10/08 02:02:21;;;;;;;0.00;0.00;;;12.60;99.90;;;;;;5037235;28;20102;-78
2022/10/08 02:04:48;;;;;;;0.00;0.00;;;12.60;99.90;;;;;;5041707;28;20088;-78
2022/10/08 02:07:22;;;;;;;1.27;1.17;;;12.50;99.90;;;;;;5028247;28;20037;-78
2022/10/08 02:10:01;;;;;;;0.00;0.00;;;12.50;99.90;;;;;;5019498;28;20108;-78
2022/10/08 02:12:27;;;;;;;0.10;0.10;;;12.40;99.90;;;;;;5028547;28;20049;-79
2022/10/08 02:14:55;;;;;;;0.10;0.10;;;12.40;99.90;;;;;;5035565;28;20053;-79
2022/10/08 02:17:48;;;;;;;0.10;0.10;;;12.40;99.90;;;;;;5028793;28;20053;-79
2022/10/08 02:20:29;;;;;;;0.10;0.10;;;12.20;99.90;;;;;;5025363;28;20050;-79
2022/10/08 02:23:01;;;;;;;0.10;0.10;;;12.30;99.90;;;;;;5029767;28;20049;-81
2022/10/08 02:25:39;;;;;;;0.10;0.10;;;12.30;99.90;;;;;;5029692;28;20400;-80
2022/10/08 02:28:36;;;;;;;0.10;0.10;;;12.30;99.90;;;;;;5039035;28;20400;-81
2022/10/08 02:31:12;;;;;;;0.00;0.00;;;12.10;99.90;;;;;;5015473;28;20046;-82
2022/10/08 02:33:50;;;;;;;0.28;0.28;;;12.10;99.90;;;;;;5027062;28;20049;-82
2022/10/08 02:36:24;;;;;;;0.10;0.10;;;12.10;99.90;;;;;;5028342;28;20060;-81
2022/10/08 02:38:53;;;;;;;0.88;0.88;;;12.10;99.90;;;;;;5032852;28;20045;-81
2022/10/08 02:41:27;;;;;;;0.00;0.00;;;12.00;99.90;;;;;;5037362;28;20048;-81
2022/10/08 02:43:56;;;;;;;0.00;0.00;;;12.00;99.90;;;;;;5026268;28;20046;-82
2022/10/08 02:46:26;;;;;;;0.60;0.57;;;12.00;99.90;;;;;;5019242;28;20529;-81
2022/10/08 02:49:22;;;;;;;0.10;0.10;;;12.00;99.90;;;;;;5038214;28;20498;-81
2022/10/08 02:51:49;;;;;;;0.45;0.43;;;11.90;99.90;;;;;;5042242;28;20053;-81
2022/10/08 02:54:18;;;;;;;0.95;0.95;;;11.90;99.90;;;;;;5049469;28;20041;-81
2022/10/08 02:56:57;;;;;;;0.03;0.03;;;11.90;99.90;;;;;;5032926;28;20060;-81
2022/10/08 02:59:24;;;;;;;0.10;0.10;;;11.80;99.90;;;;;;5032139;28;20045;-81
2022/10/08 03:02:01;;;;;;;0.10;0.10;;;11.80;99.90;;;;;;5025282;28;20052;-81
2022/10/08 03:04:38;;;;;;;0.10;0.10;;;11.90;99.90;;;;;;5027484;28;20049;-81
2022/10/08 03:07:05;;;;;;;0.10;0.10;;;11.90;99.90;;;;;;5040912;28;20112;-81
2022/10/08 03:09:37;;;;;;;0.68;0.68;;;12.00;99.90;;;;;;5031143;28;20102;-81
2022/10/08 03:12:04;;;;;;;1.85;1.35;;;11.90;99.90;;;;;;5029765;28;20054;-81
2022/10/08 03:14:33;;;;;;;0.00;0.00;;;11.90;99.90;;;;;;5033060;28;20033;-81
2022/10/08 03:16:59;;;;;;;0.10;0.10;;;11.90;99.90;;;;;;5024778;28;20045;-81
2022/10/08 03:19:25;;;;;;;0.05;0.05;;;11.90;99.90;;;;;;5019109;28;20144;-80
2022/10/08 03:21:54;;;;;;;0.10;0.10;;;11.90;99.90;;;;;;5028592;28;20049;-80
2022/10/08 03:24:20;;;;;;;0.10;0.10;;;11.90;99.90;;;;;;5034619;28;20381;-80
2022/10/08 03:26:45;;;;;;;2.15;1.23;;;11.90;99.90;;;;;;5047295;28;20051;-80
2022/10/08 03:29:11;;;;;;;0.10;0.10;;;11.90;99.90;;;;;;5031449;28;20452;-80
2022/10/08 03:31:36;;;;;;;0.10;0.10;;;11.80;99.90;;;;;;5031164;28;20050;-79
2022/10/08 03:34:02;;;;;;;0.00;0.00;;;11.80;99.90;;;;;;5018603;28;20135;-80
2022/10/08 03:36:28;;;;;;;0.10;0.10;;;11.80;99.90;;;;;;5011114;28;20371;-81
2022/10/08 03:38:53;;;;;;;0.00;0.00;;;11.80;99.90;;;;;;5030081;28;20052;-81
2022/10/08 03:41:19;;;;;;;0.08;0.08;;;11.70;99.90;;;;;;5029804;28;20041;-81
2022/10/08 03:43:45;;;;;;;0.00;0.00;;;11.70;99.90;;;;;;5030927;28;20108;-80
2022/10/08 03:46:12;;;;;;;0.00;0.00;;;11.60;99.90;;;;;;5027324;28;20436;-81
2022/10/08 03:48:39;;;;;;;0.10;0.10;;;11.60;99.90;;;;;;5044592;28;20041;-81
2022/10/08 03:51:07;;;;;;;0.10;0.10;;;11.60;99.90;;;;;;5032869;28;20151;-81
2022/10/08 03:53:35;;;;;;;0.00;0.00;;;11.50;99.90;;;;;;5038496;28;20045;-82
2022/10/08 03:56:02;;;;;;;0.10;0.10;;;11.40;99.90;;;;;;5029953;28;20081;-81
2022/10/08 03:58:28;;;;;;;0.10;0.10;;;11.40;99.90;;;;;;5034861;28;20049;-81
2022/10/08 04:00:58;;;;;;;0.10;0.10;;;11.40;99.90;;;;;;5027429;28;20071;-81
2022/10/08 04:03:25;;;;;;;0.10;0.10;;;11.30;99.90;;;;;;5032311;28;20061;-81
2022/10/08 04:05:50;;;;;;;0.10;0.10;;;11.30;99.90;;;;;;5030470;28;20033;-81
2022/10/08 04:08:16;;;;;;;0.10;0.10;;;11.20;99.90;;;;;;5024016;28;20101;-81
2022/10/08 04:10:42;;;;;;;0.10;0.10;;;11.20;99.90;;;;;;5027866;28;20046;-81
2022/10/08 04:13:07;;;;;;;0.10;0.10;;;11.20;99.90;;;;;;5050378;28;20120;-80
2022/10/08 04:15:33;;;;;;;0.10;0.10;;;11.20;99.90;;;;;;5032256;28;20041;-81
2022/10/08 04:17:59;;;;;;;0.20;0.20;;;11.20;99.90;;;;;;5026780;28;20579;-80
2022/10/08 04:20:24;;;;;;;0.85;0.63;;;11.20;99.90;;;;;;5030129;28;20046;-80
2022/10/08 04:22:50;;;;;;;0.10;0.10;;;11.10;99.90;;;;;;5020156;28;20084;-80
2022/10/08 04:25:15;;;;;;;0.15;0.15;;;11.10;99.90;;;;;;5014321;28;20108;-79
2022/10/08 04:27:41;;;;;;;0.10;0.10;;;11.10;99.90;;;;;;5040285;28;20434;-79
2022/10/08 04:30:07;;;;;;;0.00;0.00;;;11.10;99.90;;;;;;5040701;28;20048;-79
2022/10/08 04:32:33;;;;;;;0.63;0.63;;;11.00;99.90;;;;;;5044800;28;20082;-80
2022/10/08 04:34:58;;;;;;;0.10;0.10;;;11.00;99.90;;;;;;5050945;28;20128;-81
2022/10/08 04:37:24;;;;;;;0.08;0.08;;;11.00;99.90;;;;;;5033383;28;20037;-81
2022/10/08 04:39:49;;;;;;;7.78;1.15;;;10.90;99.90;;;;;;5039291;28;20117;-81
2022/10/08 04:42:15;;;;;;;0.00;0.00;;;10.90;99.90;;;;;;5030017;28;20122;-82
2022/10/08 04:44:40;;;;;;;0.00;0.00;;;11.00;99.90;;;;;;5035987;28;20860;-81
2022/10/08 04:47:06;;;;;;;5.78;1.42;;;10.90;99.90;;;;;;5033552;28;20052;-81
2022/10/08 04:49:32;;;;;;;0.03;0.03;;;10.90;99.90;;;;;;5026558;28;20545;-81
2022/10/08 04:51:57;;;;;;;0.10;0.10;;;10.80;99.90;;;;;;5034297;28;20404;-81
2022/10/08 04:54:23;;;;;;;0.00;0.00;;;10.80;99.90;;;;;;5042342;28;20045;-82
2022/10/08 04:56:48;;;;;;;0.10;0.10;;;10.70;99.90;;;;;;5023694;28;20445;-82
2022/10/08 04:59:14;;;;;;;0.00;0.00;;;10.70;99.90;;;;;;5013954;28;20042;-82
2022/10/08 05:01:39;;;;;;;0.00;0.00;;;10.70;99.90;;;;;;5033679;28;20519;-81
2022/10/08 05:04:05;;;;;;;0.00;0.00;;;10.70;99.90;;;;;;5032007;28;20049;-81
2022/10/08 05:06:31;;;;;;;0.10;0.10;;;10.60;99.90;;;;;;5044425;28;20044;-82
2022/10/08 05:09:01;;;;;;;0.00;0.00;;;10.60;99.90;;;;;;5036876;28;20492;-81
2022/10/08 05:11:27;;;;;;;0.10;0.10;;;10.50;99.90;;;;;;5014935;28;20050;-81
2022/10/08 05:13:54;;;;;;;0.00;0.00;;;10.50;99.90;;;;;;5021306;28;20115;-81
2022/10/08 05:16:20;;;;;;;0.00;0.00;;;10.50;99.90;;;;;;5031899;28;20033;-80
2022/10/08 05:18:47;;;;;;;0.10;0.10;;;10.50;99.90;;;;;;5032335;28;20037;-80
2022/10/08 05:21:16;;;;;;;0.00;0.00;;;10.40;99.90;;;;;;5026484;28;20054;-81
2022/10/08 05:23:42;;;;;;;0.00;0.00;;;10.40;99.90;;;;;;5034013;28;20045;-80
2022/10/08 05:26:14;;;;;;;0.20;0.20;;;10.40;99.90;;;;;;5041580;28;20456;-80
2022/10/08 05:28:40;;;;;;;0.30;0.30;;;10.40;99.90;;;;;;5031092;28;20477;-80
2022/10/08 05:31:05;;;;;;;0.10;0.10;;;10.30;99.90;;;;;;5029418;28;20057;-79
2022/10/08 05:33:31;;;;;;;0.00;0.00;;;10.30;99.90;;;;;;5031764;28;20045;-80
2022/10/08 05:35:56;;;;;;;0.10;0.10;;;10.30;99.90;;;;;;5032247;28;20115;-81
2022/10/08 05:38:22;;;;;;;0.10;0.10;;;10.20;99.90;;;;;;5032219;28;20044;-81
2022/10/08 05:40:47;;;;;;;0.10;0.10;;;10.20;99.90;;;;;;5037044;28;20049;-81
2022/10/08 05:43:13;;;;;;;0.00;0.00;;;10.20;99.90;;;;;;5022046;28;20042;-81
2022/10/08 05:45:39;;;;;;;0.00;0.00;;;10.20;99.90;;;;;;5034138;28;20049;-81
2022/10/08 05:48:04;;;;;;;0.10;0.10;;;10.30;99.90;;;;;;5045215;28;20037;-82
2022/10/08 05:50:30;;;;;;;0.10;0.10;;;10.30;99.90;;;;;;5044933;28;20038;-81
2022/10/08 05:52:55;;;;;;;0.10;0.10;;;10.40;99.90;;;;;;5034196;28;20631;-81
2022/10/08 05:55:21;;;;;;;0.38;0.38;;;10.40;99.90;;;;;;5038698;28;20147;-81
2022/10/08 05:57:46;;;;;;;0.10;0.10;;;10.50;99.90;;;;;;5019492;28;20038;-81
2022/10/08 06:00:13;;;;;;;0.10;0.10;;;10.50;99.90;;;;;;5013408;28;20140;-81
2022/10/08 06:02:38;;;;;;;0.10;0.10;;;10.70;99.90;;;;;;5029073;28;20050;-80
2022/10/08 06:05:04;;;;;;;0.22;0.10;;;10.90;99.90;;;;;;5033674;28;20474;-80
2022/10/08 06:07:30;;;;;;;5.72;0.82;;;11.00;99.90;;;;;;5032379;28;20052;-80
2022/10/08 06:09:55;;;;;;;0.10;0.10;;;11.10;99.90;;;;;;5045981;28;20038;-80
2022/10/08 06:12:21;;;;;;;0.10;0.10;;;11.20;99.90;;;;;;5038533;28;20049;-79
2022/10/08 06:14:46;;;;;;;0.00;0.00;;;11.20;99.90;;;;;;5041920;28;20041;-79
2022/10/08 06:17:12;;;;;;;0.10;0.10;;;11.20;99.90;;;;;;5034893;28;20080;-79
2022/10/08 06:19:37;;;;;;;0.03;0.03;;;11.20;99.90;;;;;;5028887;28;20041;-78
2022/10/08 06:22:03;;;;;;;0.10;0.10;;;11.20;99.90;;;;;;5027966;28;20045;-80
2022/10/08 06:24:29;;;;;;;0.00;0.00;;;11.20;99.90;;;;;;5012031;28;20100;-77
2022/10/08 06:26:55;;;;;;;0.00;0.00;;;11.20;99.90;;;;;;5011898;28;20056;-77
2022/10/08 06:29:21;;;;;;;0.10;0.10;;;11.30;99.90;;;;;;5033646;28;20068;-77
2022/10/08 06:31:47;;;;;;;0.10;0.10;;;11.40;99.90;;;;;;5031155;28;20067;-76
2022/10/08 06:34:13;;;;;;;0.10;0.10;;;11.50;99.90;;;;;;5045457;28;20037;-77
2022/10/08 06:36:39;;;;;;;0.10;0.10;;;11.50;99.90;;;;;;5033960;28;20047;-77
2022/10/08 06:39:08;;;;;;;0.10;0.10;;;11.60;99.90;;;;;;5033011;28;20045;-76
2022/10/08 06:41:34;;;;;;;0.08;0.08;;;11.60;99.90;;;;;;5048282;28;20501;-77
2022/10/08 06:44:05;;;;;;;0.10;0.10;;;11.60;99.90;;;;;;5049212;28;20095;-77
2022/10/08 06:46:31;;;;;;;0.10;0.10;;;11.60;99.90;;;;;;5037490;28;20124;-77
2022/10/08 06:48:59;;;;;;;0.10;0.10;;;11.50;99.90;;;;;;5041143;28;20128;-77
2022/10/08 06:51:25;;;;;;;0.08;0.08;;;11.60;99.90;;;;;;5050945;28;20609;-77
2022/10/08 06:53:53;;;;;;;0.10;0.10;;;11.50;99.90;;;;;;5051444;28;20488;-77
2022/10/08 06:56:19;;;;;;;0.10;0.10;;;11.50;99.90;;;;;;5028863;28;20080;-77
2022/10/08 06:58:46;;;;;;;0.10;0.10;;;11.40;99.90;;;;;;5038294;28;20505;-79
2022/10/08 07:01:24;;;;;;;0.00;0.00;;;11.40;99.90;;;;;;5016614;28;20124;-78
2022/10/08 07:03:53;;;;;;;0.00;0.00;;;11.40;99.90;;;;;;5027025;28;20053;-78
2022/10/08 07:06:18;;;;;;;0.10;0.10;;;11.40;99.90;;;;;;5031585;28;20154;-77
2022/10/08 07:08:44;;;;;;;0.00;0.00;;;11.40;99.90;;;;;;5030791;28;20088;-77
2022/10/08 07:11:15;;;;;;;0.10;0.10;;;11.40;99.90;;;;;;5026895;28;20057;-77
2022/10/08 07:13:42;;;;;;;0.10;0.10;;;11.40;99.90;;;;;;5030412;28;20061;-77
2022/10/08 07:16:17;;;;;;;0.00;0.00;;;11.50;99.90;;;;;;5028682;28;20065;-77
2022/10/08 07:18:42;;;;;;;0.10;0.10;;;11.50;99.90;;;;;;5028211;28;20072;-77
2022/10/08 07:21:12;;;;;;;0.05;0.05;;;11.60;99.90;;;;;;5030342;28;20072;-77
2022/10/08 07:23:37;;;;;;;0.10;0.10;;;11.60;99.90;;;;;;5028683;28;20049;-77
2022/10/08 07:26:19;;;;;;;0.00;0.00;;;11.70;99.90;;;;;;5045699;28;20051;-77
2022/10/08 07:28:59;;;;;;;0.10;0.10;;;11.80;99.90;;;;;;5048697;28;20044;-77
2022/10/08 07:31:28;;;;;;;0.95;0.95;;;11.80;99.90;;;;;;5018112;28;20057;-77
2022/10/08 07:33:54;;;;;;;0.10;0.10;;;11.90;99.90;;;;;;5036345;28;20052;-77
2022/10/08 07:36:22;;;;;;;0.00;0.00;;;12.00;99.90;;;;;;5043605;28;20032;-77
2022/10/08 07:38:55;;;;;;;1.80;0.90;;;12.00;99.90;;;;;;5048734;28;20542;-77
2022/10/08 07:41:21;;;;;;;0.10;0.10;;;12.10;99.90;;;;;;5040076;28;20056;-77
2022/10/08 07:43:57;;;;;;;0.10;0.10;;;12.20;99.90;;;;;;5050797;28;20048;-78
2022/10/08 07:46:22;;;;;;;0.03;0.03;;;12.20;99.90;;;;;;5042966;28;20115;-78
2022/10/08 07:48:49;;;;;;;0.20;0.20;;;12.30;99.90;;;;;;5043342;28;20447;-78
2022/10/08 07:51:18;;;;;;;0.10;0.10;;;12.40;99.90;;;;;;5043498;28;20048;-78
2022/10/08 07:53:44;;;;;;;0.10;0.10;;;12.40;99.90;;;;;;5029830;28;20041;-77
2022/10/08 07:56:12;;;;;;;0.55;0.55;;;12.40;99.90;;;;;;5014821;28;20512;-78
2022/10/08 07:58:38;;;;;;;0.10;0.10;;;12.50;99.90;;;;;;5037779;28;20049;-79
2022/10/08 08:01:05;;;;;;;0.10;0.10;;;12.60;99.90;;;;;;5047036;28;20098;-79
2022/10/08 08:03:31;;;;;;;0.32;0.32;;;12.70;99.90;;;;;;5028479;28;20061;-78
2022/10/08 08:06:05;;;;;;;0.90;0.82;;;12.70;99.90;;;;;;5027180;28;20068;-78
2022/10/08 08:08:33;;;;;;;0.10;0.10;;;12.80;99.90;;;;;;5030740;28;20098;-79
2022/10/08 08:11:00;;;;;;;0.00;0.00;;;12.90;99.90;;;;;;5026352;28;20048;-79
2022/10/08 08:13:28;;;;;;;0.10;0.10;;;13.10;99.90;;;;;;5039108;28;20450;-78
2022/10/08 08:15:59;;;;;;;0.17;0.17;;;13.20;99.90;;;;;;5026488;28;20445;-78
2022/10/08 08:18:27;;;;;;;0.00;0.00;;;13.20;99.90;;;;;;5020033;28;20400;-75
2022/10/08 08:21:16;;;;;;;0.10;0.10;;;13.00;99.90;;;;;;5030682;28;20056;-75
2022/10/08 08:23:44;;;;;;;0.10;0.10;;;12.90;99.90;;;;;;5029619;28;20053;-75
2022/10/08 08:26:13;;;;;;;0.10;0.10;;;12.90;99.90;;;;;;5026499;28;20033;-75
2022/10/08 08:28:38;;;;;;;0.10;0.10;;;12.70;99.90;;;;;;5027372;28;20049;-75
2022/10/08 08:31:14;;;;;;;0.05;0.05;;;12.70;99.90;;;;;;5026899;28;20045;-75
2022/10/08 08:33:40;;;;;;;0.10;0.10;;;12.70;99.90;;;;;;5025715;28;20049;-75
2022/10/08 08:36:06;;;;;;;0.10;0.10;;;12.70;99.90;;;;;;5026604;28;20124;-75
2022/10/08 08:38:36;;;;;;;0.00;0.00;;;12.70;99.90;;;;;;5028165;28;20132;-75
2022/10/08 08:41:30;;;;;;;0.10;0.10;;;12.80;99.90;;;;;;5036998;28;20041;-75
2022/10/08 08:44:01;;;;;;;0.10;0.10;;;12.90;99.90;;;;;;5026237;28;20132;-76
2022/10/08 08:46:31;;;;;;;0.05;0.05;;;12.90;99.90;;;;;;5034849;28;20045;-76
2022/10/08 08:49:03;;;;;;;0.10;0.10;;;13.00;99.90;;;;;;5028595;28;20049;-75
2022/10/08 08:51:29;;;;;;;0.08;0.08;;;13.20;99.90;;;;;;5028874;28;20072;-76
2022/10/08 08:53:56;;;;;;;0.10;0.10;;;13.30;99.90;;;;;;5036008;28;20053;-76
2022/10/08 08:56:23;;;;;;;0.10;0.10;;;13.40;99.90;;;;;;5047146;28;20049;-76
2022/10/08 08:59:07;;;;;;;0.10;0.10;;;13.50;99.90;;;;;;5049783;28;20044;-76
2022/10/08 09:01:41;;;;;;;0.10;0.10;;;13.40;99.90;;;;;;5045814;28;20048;-76
2022/10/08 09:04:39;;;;;;;0.10;0.10;;;13.50;99.90;;;;;;5042874;28;20102;-76
2022/10/08 09:07:10;;;;;;;0.10;0.10;;;13.60;99.90;;;;;;5041155;28;20132;-76
2022/10/08 09:09:43;;;;;;;2.33;1.35;;;13.60;99.90;;;;;;5049068;28;20075;-76
2022/10/08 09:12:20;;;;;;;0.30;0.30;;;13.70;99.90;;;;;;5027633;28;20037;-77
2022/10/08 09:14:50;;;;;;;0.00;0.00;;;13.80;99.90;;;;;;5014140;28;20053;-75
2022/10/08 09:17:19;;;;;;;0.10;0.10;;;14.70;99.90;;;;;;5047751;28;20037;-75
2022/10/08 09:19:47;;;;;;;0.10;0.10;;;15.50;99.90;;;;;;5053169;28;20048;-75
2022/10/08 09:22:25;;;;;;;0.10;0.10;;;16.20;99.90;;;;;;5047237;28;20080;-74
2022/10/08 09:25:02;;;;;;;0.10;0.10;;;16.90;99.90;;;;;;5033128;28;20489;-73
2022/10/08 09:27:46;;;;;;;0.00;0.00;;;17.60;99.90;;;;;;5044910;28;20053;-74
2022/10/08 09:30:23;;;;;;;0.10;0.10;;;18.10;99.90;;;;;;5035225;28;20064;-74
2022/10/08 09:32:53;;;;;;;0.10;0.10;;;18.70;99.90;;;;;;5030755;28;20064;-74
2022/10/08 09:35:20;;;;;;;0.10;0.10;;;18.70;99.90;;;;;;5031962;28;20053;-75
2022/10/08 09:37:47;;;;;;;0.05;0.05;;;19.00;99.90;;;;;;5047453;28;20044;-74
2022/10/08 09:40:15;;;;;;;0.10;0.10;;;19.00;99.90;;;;;;5029182;28;20050;-74
2022/10/08 09:42:41;;;;;;;0.10;0.10;;;19.00;99.90;;;;;;5031248;28;20057;-74
2022/10/08 09:45:33;;;;;;;0.10;0.10;;;19.10;99.90;;;;;;5043603;28;20049;-73
2022/10/08 09:48:10;;;;;;;0.00;0.00;;;18.90;99.90;;;;;;5047958;28;20048;-74
2022/10/08 09:50:36;;;;;;;0.00;0.00;;;18.80;99.90;;;;;;5052742;28;20056;-75
2022/10/08 09:53:02;;;;;;;0.00;0.00;;;18.30;99.90;;;;;;5050764;28;20045;-74
2022/10/08 09:55:31;;;;;;;0.10;0.10;;;18.30;99.90;;;;;;5049807;28;20099;-74
2022/10/08 09:58:02;;;;;;;0.00;0.00;;;18.10;99.90;;;;;;5030880;28;20389;-75
2022/10/08 10:00:34;;;;;;;0.10;0.10;;;18.30;99.90;;;;;;5029675;28;20042;-75
2022/10/08 10:03:01;;;;;;;0.05;0.05;;;18.20;99.90;;;;;;5040613;28;20156;-76
2022/10/08 10:05:30;;;;;;;0.20;0.20;;;18.20;99.90;;;;;;5051540;28;20053;-80
2022/10/08 10:07:56;;;;;;;1.30;1.20;;;18.20;99.90;;;;;;5052063;28;20480;-76
2022/10/08 10:10:31;;;;;;;0.35;0.35;;;18.10;99.90;;;;;;5018493;28;20103;-77
2022/10/08 10:13:07;;;;;;;0.00;0.00;;;17.70;99.90;;;;;;5042182;28;20045;-77
2022/10/08 10:15:42;;;;;;;0.22;0.22;;;17.60;99.90;;;;;;5034395;28;20086;-78
2022/10/08 10:18:13;;;;;;;0.52;0.52;;;17.40;99.90;;;;;;5051453;28;20056;-77
2022/10/08 10:20:44;;;;;;;0.10;0.10;;;17.20;99.90;;;;;;5049903;28;20037;-78
2022/10/08 10:23:23;;;;;;;0.10;0.10;;;17.00;99.90;;;;;;5048835;28;20452;-77
2022/10/08 10:25:59;;;;;;;0.75;0.57;;;16.80;99.90;;;;;;5021872;28;20053;-77
2022/10/08 10:29:02;;;;;;;5.53;1.35;;;16.30;99.90;;;;;;5029850;28;20747;-77
2022/10/08 10:31:36;;;;;;;0.10;0.10;;;16.40;99.90;;;;;;5010978;28;20140;-77
2022/10/08 10:34:16;;;;;;;0.98;0.47;;;16.60;99.90;;;;;;5026922;28;20550;-78
2022/10/08 10:36:48;;;;;;;0.10;0.10;;;16.70;99.90;;;;;;5041349;28;20496;-77
2022/10/08 10:39:37;;;;;;;0.05;0.05;;;16.50;99.90;;;;;;5022141;28;20079;-78
2022/10/08 10:42:27;;;;;;;0.38;0.38;;;16.20;99.90;;;;;;5022088;28;20183;-78
2022/10/08 10:45:15;;;;;;;0.17;0.17;;;16.30;99.90;;;;;;5023952;28;20054;-77
2022/10/08 10:47:41;;;;;;;0.00;0.00;;;16.20;99.90;;;;;;5033597;28;20061;-77
2022/10/08 10:50:24;;;;;;;3.30;1.85;;;16.30;99.90;;;;;;5036438;28;20040;-77
2022/10/08 10:53:16;;;;;;;0.10;0.10;;;16.20;99.90;;;;;;5051317;28;20044;-77
2022/10/08 10:55:54;;;;;;;0.08;0.08;;;16.00;99.90;;;;;;5044234;28;20473;-76
2022/10/08 10:58:36;;;;;;;8.27;1.85;;;16.20;99.90;;;;;;5049456;28;20048;-77
2022/10/08 11:01:29;;;;;;;0.10;0.10;;;16.20;99.90;;;;;;5015607;28;20080;-77
2022/10/08 11:04:18;;;;;;;0.30;0.30;;;16.50;99.90;;;;;;5036064;28;20505;-76
2022/10/08 11:07:02;;;;;;;0.03;0.03;;;16.90;99.90;;;;;;5051877;28;20045;-77
2022/10/08 11:09:39;;;;;;;0.00;0.00;;;17.10;99.90;;;;;;5034388;28;20057;-76
2022/10/08 11:12:23;;;;;;;0.10;0.10;;;17.10;99.90;;;;;;5030994;28;20041;-78
2022/10/08 11:15:05;;;;;;;0.20;0.20;;;17.10;99.90;;;;;;5030090;28;20041;-78
2022/10/08 11:17:49;;;;;;;0.00;0.00;;;16.80;99.90;;;;;;5042877;28;20393;-77
2022/10/08 11:20:38;;;;;;;0.10;0.10;;;16.80;99.90;;;;;;5050521;28;20152;-77
2022/10/08 11:23:19;;;;;;;0.10;0.10;;;16.60;99.90;;;;;;5020335;28;20482;-76
2022/10/08 11:26:08;;;;;;;0.30;0.30;;;16.60;99.90;;;;;;5039745;28;20061;-76
2022/10/08 11:28:52;;;;;;;0.32;0.32;;;16.30;99.90;;;;;;5036434;28;20041;-76
2022/10/08 11:31:47;;;;;;;0.10;0.10;;;16.40;99.90;;;;;;5032506;28;20098;-76
2022/10/08 11:34:21;;;;;;;0.60;0.60;;;16.40;99.90;;;;;;5022025;28;20049;-76
2022/10/08 11:37:37;;;;;;;0.20;0.20;;;16.30;99.90;;;;;;5037841;28;20459;-76
2022/10/08 11:40:21;;;;;;;2.40;0.90;;;17.40;99.90;;;;;;5023067;28;20056;-76
2022/10/08 11:43:01;;;;;;;0.10;0.10;;;17.90;99.90;;;;;;5041472;28;20037;-77
2022/10/08 11:45:35;;;;;;;0.05;0.05;;;18.60;99.90;;;;;;5028391;28;20099;-77
2022/10/08 11:48:29;;;;;;;0.10;0.10;;;18.40;99.90;;;;;;5033756;28;20076;-77
2022/10/08 11:51:17;;;;;;;0.05;0.05;;;18.10;99.90;;;;;;5043967;28;20443;-76
2022/10/08 11:54:15;;;;;;;2.45;1.45;;;18.60;99.90;;;;;;5040511;28;20089;-77
2022/10/08 11:56:51;;;;;;;0.38;0.38;;;18.90;99.90;;;;;;5038356;28;20152;-77
2022/10/08 11:59:22;;;;;;;0.00;0.00;;;19.20;99.90;;;;;;5025856;28;20075;-78
2022/10/08 12:01:55;;;;;;;0.00;0.00;;;19.50;99.90;;;;;;5019785;28;20049;-78
2022/10/08 12:04:27;;;;;;;0.00;0.00;;;19.30;99.90;;;;;;5017918;28;20058;-78
2022/10/08 12:07:04;;;;;;;0.00;0.00;;;19.50;99.90;;;;;;5027637;28;20049;-76
2022/10/08 12:09:58;;;;;;;0.80;0.80;;;19.80;99.90;;;;;;5030550;28;20386;-75
2022/10/08 12:12:23;;;;;;;0.00;0.00;;;20.10;99.90;;;;;;5026199;28;20049;-76
2022/10/08 12:14:49;;;;;;;0.10;0.10;;;19.10;99.90;;;;;;5029333;28;20094;-76
2022/10/08 12:17:15;;;;;;;0.00;0.00;;;18.50;99.90;;;;;;5038914;28;20051;-76
2022/10/08 12:19:43;;;;;;;0.57;0.45;;;18.00;99.90;;;;;;5039021;28;20169;-77
2022/10/08 12:22:16;;;;;;;0.00;0.00;;;17.90;99.90;;;;;;5046667;28;20052;-76
2022/10/08 12:24:45;;;;;;;0.00;0.00;;;17.70;99.90;;;;;;5031940;28;20516;-77
2022/10/08 12:27:16;;;;;;;1.85;0.70;;;17.40;99.90;;;;;;5026875;28;20057;-76
2022/10/08 12:29:53;;;;;;;0.10;0.10;;;16.90;99.90;;;;;;5027259;28;20048;-76
2022/10/08 12:32:19;;;;;;;0.10;0.10;;;16.60;99.90;;;;;;5043157;28;20522;-76
2022/10/08 12:34:45;;;;;;;0.10;0.10;;;16.40;99.90;;;;;;5034105;28;20037;-77
2022/10/08 12:37:36;;;;;;;0.00;0.00;;;16.30;99.90;;;;;;5031937;28;20080;-77
2022/10/08 12:40:25;;;;;;;0.08;0.08;;;16.60;99.90;;;;;;5030955;28;20048;-77
2022/10/08 12:43:06;;;;;;;0.10;0.10;;;16.60;99.90;;;;;;5028729;28;20505;-77
2022/10/08 12:45:46;;;;;;;0.00;0.00;;;16.40;99.90;;;;;;5021673;28;20042;-77
2022/10/08 12:48:40;;;;;;;0.22;0.22;;;17.20;99.90;;;;;;5037415;28;20100;-76
2022/10/08 12:51:20;;;;;;;0.00;0.00;;;17.60;99.90;;;;;;5033080;28;20049;-77
2022/10/08 12:53:47;;;;;;;0.08;0.08;;;18.50;99.90;;;;;;5029896;28;20523;-77
2022/10/08 12:56:17;;;;;;;0.00;0.00;;;18.20;99.90;;;;;;5031884;28;20056;-76
2022/10/08 12:58:45;;;;;;;0.75;0.65;;;17.90;99.90;;;;;;5053753;28;20047;-77
2022/10/08 13:01:14;;;;;;;0.00;0.00;;;17.90;99.90;;;;;;5036681;28;20139;-76
2022/10/08 13:03:39;;;;;;;7.88;0.73;;;18.00;99.90;;;;;;5035747;28;20413;-76
2022/10/08 13:06:26;;;;;;;1.88;1.35;;;18.30;99.90;;;;;;5031591;28;20041;-77
2022/10/08 13:08:52;;;;;;;0.00;0.00;;;18.70;99.90;;;;;;5044494;28;20046;-76
2022/10/08 13:11:18;;;;;;;0.13;0.13;;;19.20;99.90;;;;;;5036393;28;20447;-76
2022/10/08 13:13:49;;;;;;;0.00;0.00;;;19.00;99.90;;;;;;5052449;28;20090;-76